createdAt,value
2023-04-13T07:31:41.907Z,95577.63
2023-04-13T07:32:43.625Z,95552.41
2023-04-13T07:33:45.042Z,95575.03
2023-04-13T07:34:47.280Z,95571.00
2023-04-13T07:35:50.380Z,95574.78
2023-04-13T07:37:52.858Z,95574.34
2023-04-13T07:39:53.415Z,95560.53
2023-04-13T07:40:54.833Z,95564.03
2023-04-13T07:41:57.169Z,95572.69
2023-04-13T07:42:58.550Z,95572.09
2023-04-13T07:43:59.980Z,95567.22
2023-04-13T07:45:02.016Z,95576.88
2023-04-13T07:46:09.154Z,95580.69
2023-04-13T07:47:13.107Z,95575.59
2023-04-13T07:48:14.497Z,95578.34
2023-04-13T07:49:16.150Z,95576.91
2023-04-13T07:50:18.008Z,95583.31
2023-04-13T07:51:20.349Z,95575.25
2023-04-13T07:52:21.947Z,95578.19
2023-04-13T07:53:23.357Z,95580.09
2023-04-13T07:54:24.865Z,95573.50
2023-04-13T07:55:26.692Z,95575.00
2023-04-13T07:56:28.506Z,95572.22
2023-04-13T07:57:29.895Z,95577.72
2023-04-13T07:58:31.245Z,95567.31
2023-04-13T07:59:32.681Z,95577.72
2023-04-13T08:00:34.039Z,95578.38
2023-04-13T08:01:35.592Z,95566.28
2023-04-13T08:02:37.433Z,95578.81
2023-04-13T08:03:39.053Z,95572.19
2023-04-13T08:04:41.378Z,95577.41
2023-04-13T08:05:44.399Z,95585.22
2023-04-13T08:06:48.632Z,95579.63
2023-04-13T08:07:50.088Z,95571.75
2023-04-13T08:44:15.759Z,95598.97
2023-04-13T08:45:18.200Z,95607.66
2023-04-13T08:46:21.280Z,95610.88
2023-04-13T08:47:23.817Z,95600.03
2023-04-13T08:48:25.649Z,95601.22
2023-04-13T08:49:28.858Z,95603.00
2023-04-13T08:50:30.348Z,95604.06
2023-04-13T08:51:32.618Z,95609.81
2023-04-13T08:52:35.431Z,95609.75
2023-04-13T08:53:37.386Z,95603.00
2023-04-13T08:54:39.161Z,95597.88
2023-04-13T08:55:45.575Z,95605.53
2023-04-13T08:56:47.604Z,95604.53
2023-04-13T08:57:51.621Z,95594.22
2023-04-13T08:58:58.531Z,95591.06
2023-04-13T09:00:00.212Z,95587.56
2023-04-13T09:01:02.121Z,95598.88
2023-04-13T09:02:06.782Z,95595.84
2023-04-13T09:03:14.090Z,95594.44
2023-04-13T09:04:20.705Z,95596.28
2023-04-13T09:05:23.900Z,95599.66
2023-04-13T09:06:33.225Z,95594.75
2023-04-13T09:07:36.879Z,95592.53
2023-04-13T09:08:40.197Z,95601.13
2023-04-13T09:09:45.881Z,95591.41
2023-04-13T10:56:00.551Z,95608.72
2023-04-13T10:57:04.490Z,95609.09
2023-04-13T10:58:18.894Z,95619.47
2023-04-13T10:59:20.466Z,95610.63
2023-04-13T11:00:29.293Z,95623.22
2023-04-13T11:01:41.429Z,95617.16
2023-04-13T11:02:43.107Z,95617.66
2023-04-13T11:03:53.138Z,95613.06
2023-04-13T11:05:02.885Z,95620.59
2023-04-13T11:06:04.888Z,95612.16
2023-04-13T11:07:07.925Z,95609.63
2023-04-13T11:08:09.579Z,95603.28
2023-04-13T11:09:13.109Z,95609.06
2023-04-13T11:10:24.493Z,95618.19
2023-04-13T11:11:25.978Z,95614.22
2023-04-13T11:12:27.342Z,95610.22
2023-04-13T11:13:31.503Z,95618.59
2023-04-13T11:14:33.082Z,95621.34
2023-04-13T11:15:34.474Z,95615.13
2023-04-13T11:16:45.537Z,95602.44
2023-04-13T11:17:58.836Z,95620.31
2023-04-13T11:19:02.419Z,95603.81
2023-04-13T11:20:09.034Z,95614.66
2023-04-13T11:21:17.419Z,95605.41
2023-04-13T11:22:22.429Z,95607.69
2023-04-13T11:23:24.523Z,95609.94
2023-04-13T11:24:27.897Z,95605.94
2023-04-13T11:25:30.138Z,95608.16
2023-04-13T11:26:36.400Z,95613.63
2023-04-13T11:27:38.040Z,95602.47
2023-04-13T11:28:46.991Z,95612.03
2023-04-13T11:30:05.581Z,95610.91
2023-04-13T11:31:07.713Z,95610.44
2023-04-13T11:32:18.810Z,95601.50
2023-04-13T11:33:28.872Z,95609.69
2023-04-13T11:34:30.284Z,95610.75
2023-04-13T11:35:32.058Z,95602.28
2023-04-13T11:36:33.581Z,95612.38
2023-04-13T11:37:39.536Z,95610.88
2023-04-13T11:38:41.995Z,95600.78
2023-04-13T11:39:46.506Z,95604.72
2023-04-13T11:40:48.550Z,95591.28
2023-04-13T11:41:50.910Z,95606.56
2023-04-13T11:42:54.321Z,95597.81
2023-04-13T11:43:56.013Z,95602.91
2023-04-13T11:44:58.022Z,95599.13
2023-04-13T11:45:59.527Z,95602.88
2023-04-13T11:47:02.817Z,95601.78
2023-04-13T11:48:06.294Z,95601.38
2023-04-13T11:49:08.854Z,95596.91
2023-04-13T11:50:11.044Z,95589.84
2023-04-13T11:51:14.478Z,95593.78
2023-04-13T11:52:16.266Z,95560.63
2023-04-13T11:53:18.757Z,95586.81
2023-04-13T11:54:20.252Z,95592.50
2023-04-13T11:55:24.001Z,95595.63
2023-04-13T11:56:25.924Z,95594.97
2023-04-13T11:57:28.990Z,95593.66
2023-04-13T11:58:31.585Z,95587.34
2023-04-13T11:59:33.032Z,95591.63
2023-04-13T12:00:41.161Z,95592.34
2023-04-13T12:01:51.121Z,95585.00
2023-04-13T12:04:14.759Z,95588.38
2023-04-13T12:05:22.542Z,95582.19
2023-04-13T12:06:24.532Z,95586.41
2023-04-13T12:07:26.628Z,95581.53
2023-04-13T12:08:30.498Z,95583.34
2023-04-13T12:09:55.350Z,95585.06
2023-04-13T12:11:25.350Z,95578.69
2023-04-13T12:13:42.191Z,95573.88
2023-04-13T12:15:10.574Z,95571.03
2023-04-13T12:16:45.270Z,95575.06
2023-04-13T12:17:59.980Z,95579.97
2023-04-13T12:19:14.076Z,95576.03
2023-04-13T12:20:17.632Z,95580.59
2023-04-13T12:21:20.872Z,95588.19
2023-04-13T12:22:23.917Z,95581.59
2023-04-13T12:23:27.985Z,95587.28
2023-04-13T12:24:37.629Z,95572.84
2023-04-13T12:25:39.617Z,95582.50
2023-04-13T12:27:17.091Z,95584.63
2023-04-13T12:28:03.375Z,95592.75
2023-04-13T12:29:05.662Z,95583.81
2023-04-13T12:30:12.346Z,95587.03
2023-04-13T12:31:16.002Z,95585.22
2023-04-13T12:32:17.709Z,95565.25
2023-04-13T12:33:19.171Z,95581.41
2023-04-13T12:34:22.558Z,95585.81
2023-04-13T12:35:24.017Z,95584.84
2023-04-13T12:36:28.501Z,95578.25
2023-04-13T12:37:29.893Z,95585.06
2023-04-13T12:38:32.818Z,95577.22
2023-04-13T12:39:34.502Z,95586.19
2023-04-13T12:40:35.916Z,95584.44
2023-04-13T12:41:37.431Z,95586.47
2023-04-13T12:42:42.520Z,95590.03
2023-04-13T12:43:43.858Z,95583.06
2023-04-13T12:44:45.467Z,95582.56
2023-04-13T12:45:46.970Z,95577.56
2023-04-13T12:46:48.362Z,95583.16
2023-04-13T12:47:49.749Z,95584.81
2023-04-13T12:48:51.338Z,95564.78
2023-04-13T12:49:52.718Z,95581.63
2023-04-13T12:50:54.478Z,95574.97
2023-04-13T12:51:55.990Z,95578.72
2023-04-13T12:52:57.451Z,95572.13
2023-04-13T12:53:58.973Z,95585.97
2023-04-13T12:55:02.260Z,95574.22
2023-04-13T12:56:03.978Z,95579.38
2023-04-13T12:57:05.605Z,95570.44
2023-04-13T12:58:07.297Z,95584.50
2023-04-13T12:59:08.775Z,95582.28
2023-04-13T13:00:12.281Z,95575.66
2023-04-13T13:01:14.422Z,95577.16
2023-04-13T13:02:16.144Z,95583.66
2023-04-13T13:03:17.658Z,95583.66
2023-04-13T13:04:19.258Z,95565.28
2023-04-13T13:05:20.925Z,95580.38
2023-04-13T13:06:22.364Z,95573.56
2023-04-13T13:07:23.909Z,95577.41
2023-04-13T13:08:26.266Z,95576.00
2023-04-13T13:09:28.166Z,95569.69
2023-04-13T13:10:30.265Z,95570.91
2023-04-13T13:11:32.110Z,95570.94
2023-04-13T13:12:33.550Z,95572.19
2023-04-13T13:13:35.369Z,95573.88
2023-04-13T13:14:36.829Z,95571.94
2023-04-13T13:15:38.272Z,95574.69
2023-04-13T13:16:39.685Z,95577.44
2023-04-13T13:17:41.923Z,95576.63
2023-04-13T13:18:50.235Z,95573.00
2023-04-13T13:19:52.341Z,95573.69
2023-04-13T13:20:54.219Z,95584.38
2023-04-13T13:21:56.024Z,95576.63
2023-04-13T13:22:57.790Z,95578.44
2023-04-13T13:23:59.401Z,95585.31
2023-04-13T13:25:01.597Z,95579.94
2023-04-13T13:26:23.006Z,95582.91
2023-04-13T13:28:28.775Z,95581.50
2023-04-13T13:29:33.216Z,95590.72
2023-04-13T13:30:38.427Z,95587.41
2023-04-13T13:31:41.444Z,95592.13
2023-04-13T13:32:42.938Z,95604.59
2023-04-13T13:33:44.543Z,95603.78
2023-04-13T13:34:45.901Z,95595.47
2023-04-13T13:35:48.360Z,95609.69
2023-04-13T13:36:49.760Z,95605.13
2023-04-13T13:37:51.215Z,95610.00
2023-04-13T13:38:52.729Z,95609.47
2023-04-13T13:39:54.874Z,95611.50
2023-04-13T13:40:56.413Z,95601.53
2023-04-13T13:41:58.426Z,95602.28
2023-04-13T13:42:59.819Z,95609.78
2023-04-13T13:44:01.175Z,95597.34
2023-04-13T13:45:02.819Z,95608.94
2023-04-13T13:46:05.739Z,95604.84
2023-04-13T13:47:07.768Z,95606.81
2023-04-13T13:48:09.177Z,95605.16
2023-04-13T13:49:11.771Z,95568.59
2023-04-13T13:50:13.308Z,95596.28
2023-04-13T13:51:14.844Z,95587.34
2023-04-13T13:52:16.303Z,95581.13
2023-04-13T13:53:18.028Z,95586.00
2023-04-13T13:54:20.463Z,95585.44
2023-04-13T13:55:22.999Z,95591.69
2023-04-13T13:56:24.889Z,95587.84
2023-04-13T13:57:26.377Z,95583.41
2023-04-13T13:58:27.837Z,95591.06
2023-04-13T13:59:29.171Z,95588.09
2023-04-13T14:00:31.231Z,95584.19
2023-04-13T14:01:32.790Z,95582.38
2023-04-13T14:02:34.273Z,95590.66
2023-04-13T14:03:36.257Z,95587.91
2023-04-13T14:04:38.145Z,95589.13
2023-04-13T14:05:39.937Z,95576.78
2023-04-13T14:06:41.551Z,95584.00
2023-04-13T14:07:46.226Z,95579.59
2023-04-13T14:08:47.609Z,95582.34
2023-04-13T14:09:49.055Z,95588.00
2023-04-13T14:10:50.616Z,95585.75
2023-04-13T14:11:52.087Z,95586.06
2023-04-13T14:12:55.852Z,95584.38
2023-04-13T14:13:57.728Z,95578.97
2023-04-13T14:15:00.566Z,95587.66
2023-04-13T14:16:02.077Z,95588.31
2023-04-13T14:17:03.590Z,95587.13
2023-04-13T14:18:09.956Z,95580.41
2023-04-13T14:19:12.900Z,95592.97
2023-04-13T14:20:14.371Z,95586.19
2023-04-13T14:21:15.985Z,95584.50
2023-04-13T14:22:17.414Z,95583.47
2023-04-13T14:23:18.812Z,95592.81
2023-04-13T14:24:20.217Z,95594.59
2023-04-13T14:25:21.882Z,95596.44
2023-04-13T14:26:23.306Z,95593.69
2023-04-13T14:27:24.695Z,95591.66
2023-04-13T14:28:26.086Z,95606.22
2023-04-13T14:29:27.511Z,95605.66
2023-04-13T14:30:28.941Z,95618.41
2023-04-13T14:31:30.401Z,95621.78
2023-04-13T14:32:32.404Z,95609.09
2023-04-13T14:33:34.207Z,95616.13
2023-04-13T14:34:35.788Z,95616.13
2023-04-13T14:35:38.786Z,95615.41
2023-04-13T14:36:40.352Z,95623.44
2023-04-13T14:37:41.804Z,95621.16
2023-04-13T14:38:43.305Z,95621.97
2023-04-13T14:39:44.737Z,95621.09
2023-04-13T14:40:46.585Z,95624.47
2023-04-13T14:41:47.950Z,95626.16
2023-04-13T14:42:52.716Z,95624.22
2023-04-13T14:43:54.212Z,95627.25
2023-04-13T14:44:55.755Z,95626.66
2023-04-13T14:45:58.074Z,95629.31
2023-04-13T14:47:01.034Z,95616.53
2023-04-13T14:48:02.498Z,95616.69
2023-04-13T14:49:03.965Z,95616.63
2023-04-13T14:50:06.404Z,95619.66
2023-04-13T14:51:07.852Z,95617.44
2023-04-13T14:52:09.325Z,95615.16
2023-04-13T14:53:10.805Z,95611.94
2023-04-13T14:54:12.237Z,95617.47
2023-04-13T14:55:14.536Z,95616.56
2023-04-13T14:56:16.867Z,95616.16
2023-04-13T14:57:18.366Z,95613.31
2023-04-13T14:58:19.713Z,95615.94
2023-04-13T14:59:21.298Z,95595.53
2023-04-13T15:00:26.430Z,95624.63
2023-04-13T15:01:27.976Z,95624.72
2023-04-13T15:02:29.919Z,95632.38
2023-04-13T15:03:31.687Z,95624.97
2023-04-13T15:04:33.371Z,95632.97
2023-04-13T15:05:42.208Z,95627.78
2023-04-13T15:06:43.704Z,95627.38
2023-04-13T15:07:46.181Z,95636.47
2023-04-13T15:08:47.608Z,95638.25
2023-04-13T15:09:49.065Z,95637.34
2023-04-13T15:10:50.555Z,95637.72
2023-04-13T15:11:52.075Z,95630.22
2023-04-13T15:12:53.757Z,95634.13
2023-04-13T15:13:55.204Z,95639.59
2023-04-13T15:14:56.548Z,95623.69
2023-04-13T15:15:57.969Z,95633.94
2023-04-13T15:16:59.543Z,95637.09
2023-04-13T15:18:03.141Z,95632.91
2023-04-13T15:19:04.988Z,95632.88
2023-04-13T15:20:07.587Z,95630.28
2023-04-13T15:21:09.295Z,95631.38
2023-04-13T15:22:10.932Z,95623.41
2023-04-13T15:23:12.393Z,95632.59
2023-04-13T15:24:13.781Z,95624.56
2023-04-13T15:25:15.300Z,95630.25
2023-04-13T15:26:18.269Z,95626.50
2023-04-13T15:27:19.663Z,95623.09
2023-04-13T15:28:21.263Z,95610.03
2023-04-13T15:29:23.288Z,95625.97
2023-04-13T15:30:30.888Z,95621.03
2023-04-13T15:31:35.071Z,95635.41
2023-04-13T15:32:36.671Z,95628.16
2023-04-13T15:33:38.178Z,95618.91
2023-04-13T15:34:40.491Z,95623.28
2023-04-13T15:35:41.911Z,95614.59
2023-04-13T15:36:43.429Z,95625.88
2023-04-13T15:37:44.816Z,95627.69
2023-04-13T15:38:46.238Z,95623.81
2023-04-13T15:39:47.622Z,95617.16
2023-04-13T15:40:49.042Z,95615.47
2023-04-13T15:41:52.781Z,95624.66
2023-04-13T15:42:54.163Z,95626.66
2023-04-13T15:43:56.208Z,95613.06
2023-04-13T15:44:57.618Z,95624.22
2023-04-13T15:46:01.667Z,95619.34
2023-04-13T15:47:03.377Z,95627.63
2023-04-13T15:48:05.033Z,95622.53
2023-04-13T15:49:06.513Z,95618.09
2023-04-13T15:50:11.167Z,95630.00
2023-04-13T15:51:12.678Z,95622.97
2023-04-13T15:52:14.329Z,95627.13
2023-04-13T15:53:15.864Z,95625.34
2023-04-13T15:54:17.236Z,95624.16
2023-04-13T15:55:20.336Z,95625.06
2023-04-13T15:56:21.796Z,95624.03
2023-04-13T15:57:23.217Z,95622.94
2023-04-13T15:58:24.636Z,95629.31
2023-04-13T15:59:26.888Z,95622.44
2023-04-13T16:00:28.462Z,95623.03
2023-04-13T16:01:44.072Z,95633.69
2023-04-13T16:02:45.977Z,95627.19
2023-04-13T16:03:47.817Z,95636.53
2023-04-13T16:04:49.589Z,95635.41
2023-04-13T16:05:51.632Z,95634.94
2023-04-13T16:07:09.103Z,95630.63
2023-04-13T16:08:14.639Z,95646.59
2023-04-13T16:09:16.492Z,95640.16
2023-04-13T16:10:18.645Z,95636.25
2023-04-13T16:11:20.687Z,95646.78
2023-04-13T16:12:26.395Z,95657.59
2023-04-13T16:13:45.032Z,95656.09
2023-04-13T16:14:49.811Z,95658.16
2023-04-13T16:15:58.591Z,95658.06
2023-04-13T16:17:00.224Z,95659.53
2023-04-13T16:18:01.755Z,95662.41
2023-04-13T16:19:04.067Z,95663.41
2023-04-13T16:20:15.233Z,95667.03
2023-04-13T16:21:19.455Z,95671.13
2023-04-13T16:22:22.337Z,95675.16
2023-04-13T16:23:27.611Z,95674.09
2023-04-13T16:24:28.963Z,95671.72
2023-04-13T16:25:31.123Z,95672.59
2023-04-13T16:26:32.726Z,95676.38
2023-04-13T16:27:34.745Z,95680.84
2023-04-13T16:28:37.310Z,95673.66
2023-04-13T16:29:41.557Z,95669.00
2023-04-13T16:30:43.250Z,95668.94
2023-04-13T16:31:47.772Z,95675.56
2023-04-13T16:32:50.016Z,95685.94
2023-04-13T16:33:52.042Z,95691.69
2023-04-13T16:34:53.496Z,95688.47
2023-04-13T16:35:55.000Z,95681.78
2023-04-13T16:36:57.341Z,95692.38
2023-04-13T16:37:58.744Z,95680.19
2023-04-13T16:39:05.633Z,95691.25
2023-04-13T16:40:10.227Z,95687.31
2023-04-13T16:41:11.914Z,95691.16
2023-04-13T16:42:13.495Z,95695.72
2023-04-13T16:43:14.965Z,95701.56
2023-04-13T16:44:16.351Z,95695.56
2023-04-13T16:45:17.963Z,95692.38
2023-04-13T16:46:19.466Z,95696.19
2023-04-13T16:47:21.411Z,95685.66
2023-04-13T16:48:24.025Z,95697.28
2023-04-13T16:49:25.762Z,95693.09
2023-04-13T16:50:30.402Z,95691.47
2023-04-13T16:51:33.205Z,95693.13
2023-04-13T16:52:34.665Z,95694.09
2023-04-13T16:53:36.248Z,95692.97
2023-04-13T16:54:42.787Z,95687.19
